Time;durP1;ratioP1;P1;durP2;ratioP2;P2;SDS_P1;SDS_P2;PMS_P1;PMS_P2;Temp;Humidity;BMP_temperature;BMP_pressure;BME280_temperature;BME280_humidity;BME280_pressure;Samples;Min_cycle;Max_cycle;Signal;HPM_P1;HPM_P2
2021/09/05 00:02:22;;;;;;;27.85;16.58;;;12.80;99.90;;;;;;5082169;28;20053;-52
2021/09/05 00:04:48;;;;;;;24.00;16.45;;;12.70;99.90;;;;;;5069742;28;20060;-53
2021/09/05 00:07:14;;;;;;;24.98;15.82;;;12.70;99.90;;;;;;5071671;28;20060;-49
2021/09/05 00:09:47;;;;;;;25.67;15.95;;;12.70;99.90;;;;;;5082941;28;20044;-47
2021/09/05 00:12:18;;;;;;;24.08;16.05;;;12.70;99.90;;;;;;5080580;28;20067;-50
2021/09/05 00:14:50;;;;;;;23.33;16.52;;;12.70;99.90;;;;;;5069928;28;20056;-49
2021/09/05 00:17:24;;;;;;;23.52;15.40;;;12.60;99.90;;;;;;5070722;28;20056;-48
2021/09/05 00:19:57;;;;;;;24.73;17.08;;;12.60;99.90;;;;;;5068572;28;20139;-49
2021/09/05 00:22:24;;;;;;;25.30;16.38;;;12.60;99.90;;;;;;5072200;28;20128;-48
2021/09/05 00:24:50;;;;;;;26.48;17.35;;;12.60;99.90;;;;;;5069386;28;20063;-49
2021/09/05 00:27:18;;;;;;;26.35;17.00;;;12.50;99.90;;;;;;5078775;28;20147;-48
2021/09/05 00:29:46;;;;;;;25.02;16.23;;;12.50;99.90;;;;;;5072285;28;20060;-48
2021/09/05 00:32:21;;;;;;;23.58;16.55;;;12.50;99.90;;;;;;5099163;28;20059;-46
2021/09/05 00:34:47;;;;;;;29.58;17.23;;;12.50;99.90;;;;;;5082995;28;20048;-52
2021/09/05 00:37:22;;;;;;;25.85;17.50;;;12.40;99.90;;;;;;5083971;28;20081;-50
2021/09/05 00:39:51;;;;;;;26.58;16.60;;;12.40;99.90;;;;;;5075586;28;20052;-52
2021/09/05 00:42:29;;;;;;;25.52;17.75;;;12.40;99.90;;;;;;5076412;28;20547;-51
2021/09/05 00:45:03;;;;;;;28.48;19.13;;;12.40;99.90;;;;;;5112330;27;20504;-49
2021/09/05 00:47:31;;;;;;;28.55;19.20;;;12.30;99.90;;;;;;5083190;28;20081;-51
2021/09/05 00:49:58;;;;;;;29.38;18.10;;;12.30;99.90;;;;;;5072605;28;20121;-52
2021/09/05 00:52:29;;;;;;;32.58;19.63;;;12.40;99.90;;;;;;5101440;27;20509;-48
2021/09/05 00:54:56;;;;;;;33.38;19.73;;;12.30;99.90;;;;;;5084266;28;20048;-49
2021/09/05 00:57:29;;;;;;;34.58;20.60;;;12.40;99.90;;;;;;5090994;28;20149;-51
2021/09/05 01:00:02;;;;;;;29.73;18.25;;;12.30;99.90;;;;;;5075483;28;20053;-48
2021/09/05 01:02:33;;;;;;;32.88;20.15;;;12.30;99.90;;;;;;5088078;28;20055;-52
2021/09/05 01:05:07;;;;;;;26.55;18.33;;;12.30;99.90;;;;;;5085775;28;20131;-49
2021/09/05 01:07:39;;;;;;;29.90;19.95;;;12.30;99.90;;;;;;5087462;28;20060;-48
2021/09/05 01:10:14;;;;;;;27.27;20.00;;;12.30;99.90;;;;;;5084820;28;20048;-50
2021/09/05 01:12:49;;;;;;;26.35;19.02;;;12.20;99.90;;;;;;5086374;28;20040;-51
2021/09/05 01:15:16;;;;;;;34.38;20.80;;;12.20;99.90;;;;;;5072973;28;20048;-50
2021/09/05 01:17:53;;;;;;;33.75;21.45;;;12.20;99.90;;;;;;5087865;28;20094;-49
2021/09/05 01:20:53;;;;;;;32.13;21.33;;;12.20;99.90;;;;;;5080778;28;20102;-48
2021/09/05 01:23:50;;;;;;;30.90;22.15;;;12.10;99.90;;;;;;5094781;28;20055;-50
2021/09/05 01:26:41;;;;;;;36.90;22.05;;;12.10;99.90;;;;;;5095216;28;20420;-50
2021/09/05 01:29:28;;;;;;;36.00;23.13;;;12.20;99.90;;;;;;5079892;28;20056;-49
2021/09/05 01:32:20;;;;;;;37.00;22.15;;;12.20;99.90;;;;;;5034446;28;20059;-49
2021/09/05 01:34:53;;;;;;;35.60;24.67;;;12.20;99.90;;;;;;5043954;28;20163;-50
2021/09/05 01:37:43;;;;;;;39.92;23.10;;;12.10;99.90;;;;;;5043496;28;20055;-49
2021/09/05 01:40:41;;;;;;;37.65;23.67;;;12.20;99.90;;;;;;5043000;28;20056;-50
2021/09/05 01:43:43;;;;;;;36.07;24.10;;;12.10;99.90;;;;;;5002989;28;20514;-50
2021/09/05 01:46:32;;;;;;;34.17;23.45;;;12.10;99.90;;;;;;4965369;28;20742;-52
2021/09/05 01:49:32;;;;;;;34.20;23.98;;;12.10;99.90;;;;;;4965195;28;20080;-50
2021/09/05 01:52:22;;;;;;;36.10;24.17;;;12.00;99.90;;;;;;4947861;28;20140;-51
2021/09/05 01:55:11;;;;;;;32.53;23.67;;;12.10;99.90;;;;;;4964697;28;20138;-48
2021/09/05 01:58:03;;;;;;;33.50;23.13;;;12.00;99.90;;;;;;4944654;28;20055;-48
2021/09/05 02:00:50;;;;;;;35.10;23.58;;;12.00;99.90;;;;;;4946325;29;20190;-48
2021/09/05 02:03:42;;;;;;;31.30;21.25;;;11.90;99.90;;;;;;4929401;29;20070;-48
2021/09/05 02:06:35;;;;;;;31.77;22.08;;;11.90;99.90;;;;;;4930703;29;20059;-48
2021/09/05 02:09:21;;;;;;;30.92;20.88;;;11.80;99.90;;;;;;4944563;28;20070;-46
2021/09/05 02:12:08;;;;;;;30.70;21.63;;;11.80;99.90;;;;;;4962925;28;20055;-49
2021/09/05 02:14:57;;;;;;;29.88;20.40;;;11.80;99.90;;;;;;4958587;28;20570;-48
2021/09/05 02:18:07;;;;;;;31.02;20.75;;;11.70;99.90;;;;;;4964143;28;20133;-48
2021/09/05 02:20:48;;;;;;;31.70;20.90;;;11.70;99.90;;;;;;4984875;28;20113;-48
2021/09/05 02:23:39;;;;;;;33.22;21.50;;;11.70;99.90;;;;;;4993913;28;20081;-49
2021/09/05 02:26:26;;;;;;;33.72;23.85;;;11.60;99.90;;;;;;5003741;28;20057;-46
2021/09/05 02:29:21;;;;;;;42.65;25.55;;;11.60;99.90;;;;;;5013136;28;20092;-48
2021/09/05 02:32:15;;;;;;;49.92;28.13;;;11.70;99.90;;;;;;5003099;28;20046;-47
2021/09/05 02:35:11;;;;;;;49.17;26.90;;;11.70;99.90;;;;;;5011248;28;20133;-49
2021/09/05 02:38:06;;;;;;;46.65;27.55;;;11.80;99.90;;;;;;5023524;28;20053;-52
2021/09/05 02:40:55;;;;;;;51.97;27.30;;;11.70;99.90;;;;;;5036848;28;20575;-48
2021/09/05 02:43:40;;;;;;;67.47;29.55;;;11.70;99.90;;;;;;5023173;28;20045;-49
2021/09/05 02:46:27;;;;;;;53.38;27.55;;;11.70;99.90;;;;;;4995429;28;20102;-45
2021/09/05 02:49:09;;;;;;;55.55;27.95;;;11.70;99.90;;;;;;5013946;28;20805;-49
2021/09/05 02:52:10;;;;;;;42.28;26.75;;;11.70;99.90;;;;;;5001067;28;20148;-45
2021/09/05 02:55:09;;;;;;;46.50;25.10;;;11.70;99.90;;;;;;5007413;28;20116;-47
2021/09/05 02:58:16;;;;;;;36.75;24.73;;;11.60;99.90;;;;;;4963322;28;20066;-48
2021/09/05 03:01:01;;;;;;;34.08;25.10;;;11.60;99.90;;;;;;4968639;28;20054;-47
2021/09/05 03:03:49;;;;;;;32.65;25.10;;;11.60;99.90;;;;;;4967238;28;20102;-47
2021/09/05 03:06:49;;;;;;;32.83;24.55;;;11.50;99.90;;;;;;4951305;28;20051;-48
2021/09/05 03:09:40;;;;;;;32.70;24.40;;;11.50;99.90;;;;;;4967561;28;20165;-46
2021/09/05 03:12:27;;;;;;;32.03;25.38;;;11.50;99.90;;;;;;4980984;28;20137;-47
2021/09/05 03:15:34;;;;;;;31.42;23.85;;;11.40;99.90;;;;;;4962639;28;20050;-46
2021/09/05 03:18:22;;;;;;;29.15;23.63;;;11.40;99.90;;;;;;4966669;28;20125;-49
2021/09/05 03:21:10;;;;;;;35.60;25.20;;;11.30;99.90;;;;;;4966720;28;20062;-49
2021/09/05 03:24:13;;;;;;;30.70;24.05;;;11.30;99.90;;;;;;4980170;28;20058;-49
2021/09/05 03:27:08;;;;;;;28.40;22.75;;;11.30;99.90;;;;;;4970674;28;20054;-47
2021/09/05 03:30:00;;;;;;;30.60;24.33;;;11.30;99.90;;;;;;5034564;28;20146;-48
2021/09/05 03:32:54;;;;;;;30.52;23.80;;;11.20;99.90;;;;;;5020622;28;20083;-47
2021/09/05 03:36:02;;;;;;;31.00;23.25;;;11.20;99.90;;;;;;5027150;28;20057;-48
2021/09/05 03:38:41;;;;;;;;;;;11.20;99.90;;;;;;5010238;28;20052;-47
2021/09/05 03:41:37;;;;;;;28.95;23.27;;;11.20;99.90;;;;;;5033462;28;20389;-47
2021/09/05 03:44:26;;;;;;;30.23;24.65;;;11.10;99.90;;;;;;5026367;28;20057;-47
2021/09/05 03:47:24;;;;;;;28.40;23.02;;;11.10;99.90;;;;;;5022419;28;20135;-47
2021/09/05 03:50:31;;;;;;;28.33;23.30;;;11.10;99.90;;;;;;4957776;28;20157;-48
2021/09/05 03:53:02;;;;;;;27.98;22.90;;;11.00;99.90;;;;;;4989283;28;20504;-49
2021/09/05 03:55:32;;;;;;;30.23;24.42;;;11.00;99.90;;;;;;4983842;28;20936;-46
2021/09/05 03:58:02;;;;;;;27.63;22.25;;;11.00;99.90;;;;;;4978342;28;20083;-50
2021/09/05 04:00:29;;;;;;;32.13;24.13;;;11.00;99.90;;;;;;4986078;28;20818;-50
2021/09/05 04:03:00;;;;;;;31.52;24.52;;;11.00;99.90;;;;;;5000691;28;20058;-48
2021/09/05 04:05:30;;;;;;;34.45;25.33;;;10.90;99.90;;;;;;4970768;28;20065;-47
2021/09/05 04:10:33;;;;;;;29.35;23.65;;;10.90;99.90;;;;;;4989573;28;19929;-45
2021/09/05 04:13:03;;;;;;;31.88;24.65;;;10.90;99.90;;;;;;5001711;28;20057;-50
2021/09/05 04:15:32;;;;;;;30.58;25.08;;;10.90;99.90;;;;;;5006518;28;20390;-48
2021/09/05 04:18:04;;;;;;;31.75;23.90;;;10.90;99.90;;;;;;4994945;28;20136;-48
2021/09/05 04:20:35;;;;;;;33.00;24.88;;;10.80;99.90;;;;;;5018865;28;20040;-45
2021/09/05 04:23:07;;;;;;;33.33;24.45;;;10.80;99.90;;;;;;5079264;28;20051;-49
2021/09/05 04:25:35;;;;;;;;;;;10.80;99.90;;;;;;5088314;28;20567;-47
2021/09/05 04:28:05;;;;;;;31.25;25.90;;;10.80;99.90;;;;;;5082469;28;19966;-48
2021/09/05 04:30:33;;;;;;;34.00;24.00;;;10.80;99.90;;;;;;5101638;27;20085;-49
2021/09/05 04:33:08;;;;;;;32.67;24.25;;;10.80;99.90;;;;;;5075506;28;20101;-50
2021/09/05 04:35:40;;;;;;;;;;;10.80;99.90;;;;;;5080651;28;20405;-47
2021/09/05 04:38:06;;;;;;;30.58;24.15;;;10.80;99.90;;;;;;5067415;28;19929;-50
2021/09/05 04:40:34;;;;;;;32.15;24.33;;;10.70;99.90;;;;;;5088550;28;20056;-48
2021/09/05 04:43:06;;;;;;;36.72;26.25;;;10.70;99.90;;;;;;5088234;28;20048;-50
2021/09/05 04:45:36;;;;;;;33.00;26.25;;;10.70;99.90;;;;;;5077331;28;20059;-48
2021/09/05 04:48:08;;;;;;;38.42;29.17;;;10.70;99.90;;;;;;5068273;28;20068;-47
2021/09/05 04:50:37;;;;;;;;;;;10.80;99.90;;;;;;5077013;28;20040;-47
2021/09/05 04:53:04;;;;;;;39.30;27.23;;;10.80;99.90;;;;;;5108115;28;19920;-49
2021/09/05 04:55:38;;;;;;;39.58;28.13;;;10.80;99.90;;;;;;5078170;28;20061;-48
2021/09/05 04:58:07;;;;;;;38.65;28.25;;;10.70;99.90;;;;;;5081919;28;20488;-47
2021/09/05 05:00:39;;;;;;;36.83;27.90;;;10.80;99.90;;;;;;5077122;28;20567;-48
2021/09/05 05:03:06;;;;;;;37.05;29.17;;;10.80;99.90;;;;;;5079800;28;20056;-49
2021/09/05 05:05:37;;;;;;;37.72;28.50;;;10.80;99.90;;;;;;5082219;28;20130;-50
2021/09/05 05:08:04;;;;;;;34.33;27.10;;;10.80;99.90;;;;;;5082484;28;20070;-48
2021/09/05 05:10:31;;;;;;;34.95;26.73;;;10.80;99.90;;;;;;5067909;28;20048;-49
2021/09/05 05:13:03;;;;;;;38.47;28.23;;;10.80;99.90;;;;;;5068006;28;20503;-46
2021/09/05 05:15:36;;;;;;;36.28;27.63;;;10.80;99.90;;;;;;5086437;28;20048;-46
2021/09/05 05:18:05;;;;;;;34.20;27.45;;;10.80;99.90;;;;;;5080113;28;20048;-49
2021/09/05 05:20:39;;;;;;;33.25;26.88;;;10.90;99.90;;;;;;5095949;28;20062;-48
2021/09/05 05:23:08;;;;;;;39.08;28.67;;;10.90;99.90;;;;;;5084196;28;20397;-47
2021/09/05 05:25:34;;;;;;;37.58;27.88;;;10.90;99.90;;;;;;5087085;28;20075;-51
2021/09/05 05:28:01;;;;;;;37.95;28.08;;;10.90;99.90;;;;;;5082979;28;20565;-47
2021/09/05 05:30:41;;;;;;;33.45;27.50;;;11.00;99.90;;;;;;5079835;28;20054;-46
2021/09/05 05:33:10;;;;;;;36.80;28.75;;;11.00;99.90;;;;;;5087273;28;20509;-46
2021/09/05 05:35:42;;;;;;;;;;;11.00;99.90;;;;;;5081806;28;20048;-44
2021/09/05 05:38:14;;;;;;;35.78;27.48;;;11.20;99.90;;;;;;5081433;28;19924;-44
2021/09/05 05:40:43;;;;;;;37.58;27.63;;;11.20;99.90;;;;;;5081618;28;20052;-49
2021/09/05 05:43:15;;;;;;;35.75;29.50;;;11.30;99.90;;;;;;5100297;27;20420;-48
2021/09/05 05:45:44;;;;;;;83.43;67.53;;;11.40;99.90;;;;;;5049880;28;20053;-44
2021/09/05 05:48:18;;;;;;;37.67;29.58;;;11.60;99.90;;;;;;5084384;28;20070;-46
2021/09/05 05:50:52;;;;;;;34.90;26.67;;;11.80;99.90;;;;;;5086558;28;20555;-48
2021/09/05 05:53:25;;;;;;;31.23;25.45;;;11.90;99.90;;;;;;5079803;28;20056;-47
2021/09/05 05:55:57;;;;;;;41.33;33.33;;;12.10;99.90;;;;;;5067789;28;20044;-45
2021/09/05 05:58:27;;;;;;;37.25;25.27;;;12.20;99.90;;;;;;5081336;28;20561;-46
2021/09/05 06:00:57;;;;;;;31.45;25.95;;;12.30;99.90;;;;;;5076665;28;20065;-46
2021/09/05 06:03:26;;;;;;;32.80;26.55;;;12.30;99.90;;;;;;5087548;28;20508;-46
2021/09/05 06:05:57;;;;;;;32.58;26.23;;;12.50;99.90;;;;;;5085508;28;20047;-46
2021/09/05 06:08:29;;;;;;;28.58;23.30;;;12.70;99.90;;;;;;5081805;28;20131;-47
2021/09/05 06:10:58;;;;;;;28.05;23.58;;;12.80;99.90;;;;;;5087798;28;20079;-47
2021/09/05 06:13:30;;;;;;;59.60;47.28;;;12.80;99.90;;;;;;5084654;28;20089;-48
2021/09/05 06:16:02;;;;;;;33.33;26.58;;;13.00;99.90;;;;;;5078078;28;20508;-49
2021/09/05 06:18:33;;;;;;;35.03;30.73;;;13.10;99.90;;;;;;5086055;28;20048;-45
2021/09/05 06:21:10;;;;;;;38.17;32.72;;;13.30;99.90;;;;;;5083988;28;20056;-49
2021/09/05 06:23:40;;;;;;;30.15;24.45;;;13.40;99.90;;;;;;5079756;28;20059;-51
2021/09/05 06:26:12;;;;;;;27.30;22.60;;;13.60;99.90;;;;;;5084403;28;20933;-45
2021/09/05 06:28:41;;;;;;;35.85;27.65;;;13.70;99.90;;;;;;5061961;28;20485;-47
2021/09/05 06:31:10;;;;;;;32.22;27.00;;;14.10;99.90;;;;;;5093124;28;20538;-49
2021/09/05 06:33:41;;;;;;;32.92;27.70;;;14.10;99.90;;;;;;5091308;28;20051;-48
2021/09/05 06:36:13;;;;;;;32.15;28.15;;;14.30;99.90;;;;;;5090950;28;20052;-52
2021/09/05 06:38:41;;;;;;;;;;;14.40;99.90;;;;;;5091558;28;20044;-48
2021/09/05 06:41:09;;;;;;;29.52;24.98;;;14.30;99.90;;;;;;5089187;28;19935;-53
2021/09/05 06:43:38;;;;;;;31.85;25.00;;;14.30;99.90;;;;;;5089820;28;20056;-54
2021/09/05 06:46:07;;;;;;;34.67;26.55;;;14.30;99.90;;;;;;5089704;28;20109;-53
2021/09/05 06:48:38;;;;;;;35.10;27.10;;;14.20;99.90;;;;;;5089224;28;20099;-49
2021/09/05 06:51:08;;;;;;;38.38;29.02;;;14.00;99.90;;;;;;5090770;28;20052;-54
2021/09/05 06:53:40;;;;;;;41.88;27.88;;;14.10;99.90;;;;;;5090044;28;20055;-54
2021/09/05 06:56:10;;;;;;;35.88;27.23;;;14.10;99.90;;;;;;5089867;28;20176;-53
2021/09/05 06:58:39;;;;;;;34.10;26.05;;;14.10;99.90;;;;;;5089786;28;20126;-53
2021/09/05 07:01:08;;;;;;;33.17;26.40;;;14.20;99.90;;;;;;5088854;28;20399;-54
2021/09/05 07:03:41;;;;;;;35.25;27.42;;;14.30;99.90;;;;;;5089986;28;20052;-51
2021/09/05 07:06:14;;;;;;;34.50;24.73;;;14.40;99.90;;;;;;5088666;28;20377;-52
2021/09/05 07:08:44;;;;;;;32.65;25.02;;;14.50;99.90;;;;;;5089575;28;20059;-52
2021/09/05 07:11:15;;;;;;;36.00;25.42;;;14.50;99.90;;;;;;5089928;28;20056;-55
2021/09/05 07:13:44;;;;;;;27.13;23.17;;;14.60;99.90;;;;;;5089795;28;20048;-51
2021/09/05 07:16:11;;;;;;;27.55;23.25;;;14.80;99.90;;;;;;5090426;28;20139;-51
2021/09/05 07:18:41;;;;;;;27.48;22.73;;;15.00;99.90;;;;;;5089987;28;20833;-52
2021/09/05 07:21:15;;;;;;;35.40;24.80;;;15.10;99.90;;;;;;5090620;28;20063;-53
2021/09/05 07:23:44;;;;;;;;;;;15.30;99.90;;;;;;5089879;28;20056;-54
2021/09/05 07:26:11;;;;;;;25.08;21.67;;;15.30;99.90;;;;;;5089666;28;19986;-52
2021/09/05 07:28:43;;;;;;;25.30;21.45;;;15.50;99.90;;;;;;5089599;28;20083;-53
2021/09/05 07:31:12;;;;;;;24.27;21.52;;;15.70;99.90;;;;;;5090277;28;20089;-52
2021/09/05 07:33:42;;;;;;;26.63;23.83;;;16.00;99.90;;;;;;5089674;28;20471;-50
2021/09/05 07:36:08;;;;;;;29.25;23.17;;;16.40;99.90;;;;;;5088889;28;20051;-54
2021/09/05 07:38:38;;;;;;;21.92;19.77;;;16.70;99.90;;;;;;5087729;28;20717;-52
2021/09/05 07:41:13;;;;;;;25.83;23.15;;;17.10;99.90;;;;;;5071062;28;20051;-51
2021/09/05 07:43:41;;;;;;;19.92;16.90;;;17.60;99.90;;;;;;5089492;28;20524;-52
2021/09/05 07:46:10;;;;;;;17.60;15.80;;;17.70;99.90;;;;;;5088071;28;20052;-54
2021/09/05 07:48:43;;;;;;;19.15;17.25;;;18.00;99.90;;;;;;5081170;28;20067;-52
2021/09/05 07:51:13;;;;;;;20.55;18.50;;;18.20;99.90;;;;;;5082946;28;20055;-55
2021/09/05 07:53:42;;;;;;;16.48;14.80;;;18.40;99.90;;;;;;5089536;28;20131;-53
2021/09/05 07:56:18;;;;;;;19.13;16.90;;;18.60;99.90;;;;;;5069953;28;20053;-51
2021/09/05 07:58:48;;;;;;;19.27;17.27;;;18.70;99.90;;;;;;5073209;28;20110;-53
2021/09/05 08:01:17;;;;;;;22.35;19.95;;;18.90;99.90;;;;;;5088932;28;20059;-53
2021/09/05 08:03:54;;;;;;;23.77;21.30;;;19.10;99.90;;;;;;5083286;28;20059;-55
2021/09/05 08:06:23;;;;;;;15.70;14.05;;;19.10;99.90;;;;;;5089790;28;20428;-55
2021/09/05 08:08:56;;;;;;;20.80;18.77;;;19.20;99.90;;;;;;5089701;28;20095;-55
2021/09/05 08:11:30;;;;;;;20.88;18.85;;;19.70;99.90;;;;;;5075331;28;20123;-54
2021/09/05 08:13:59;;;;;;;18.25;16.35;;;20.10;99.90;;;;;;5082417;28;20049;-56
2021/09/05 08:16:35;;;;;;;17.52;15.65;;;20.40;99.90;;;;;;5073939;28;20055;-54
2021/09/05 08:19:05;;;;;;;;;;;20.50;99.90;;;;;;5084059;28;20155;-56
2021/09/05 08:21:35;;;;;;;16.95;15.25;;;20.60;99.90;;;;;;5090286;28;20015;-56
2021/09/05 08:24:05;;;;;;;15.88;14.35;;;21.00;99.90;;;;;;5083003;28;20048;-56
2021/09/05 08:26:34;;;;;;;13.38;12.07;;;21.30;99.90;;;;;;5068807;28;20066;-54
2021/09/05 08:29:06;;;;;;;12.70;11.43;;;21.50;99.90;;;;;;5084590;28;20047;-57
2021/09/05 08:31:35;;;;;;;20.88;18.60;;;21.30;99.90;;;;;;5083050;28;20656;-57
2021/09/05 08:34:05;;;;;;;39.35;35.47;;;21.90;99.90;;;;;;5087847;28;20135;-56
2021/09/05 08:36:35;;;;;;;16.65;15.02;;;21.80;99.90;;;;;;5081085;28;20182;-57
2021/09/05 08:39:04;;;;;;;55.65;50.42;;;21.60;99.90;;;;;;5075490;28;20105;-56
2021/09/05 08:41:34;;;;;;;16.08;14.55;;;22.20;99.90;;;;;;5086533;28;20081;-51
2021/09/05 08:44:03;;;;;;;15.65;13.82;;;22.40;99.90;;;;;;5095083;28;20066;-52
2021/09/05 08:46:38;;;;;;;15.90;14.27;;;22.50;99.90;;;;;;5106727;28;20392;-53
2021/09/05 08:49:12;;;;;;;25.83;23.30;;;22.60;99.90;;;;;;5089163;28;20067;-52
2021/09/05 08:51:41;;;;;;;15.50;13.85;;;22.90;99.90;;;;;;5088332;28;20040;-53
2021/09/05 08:54:10;;;;;;;15.25;13.70;;;23.10;99.90;;;;;;5086332;28;20060;-56
2021/09/05 08:56:42;;;;;;;13.55;12.15;;;22.70;98.10;;;;;;5087904;28;20059;-55
2021/09/05 08:59:14;;;;;;;13.77;11.70;;;22.70;96.40;;;;;;5089298;28;20408;-56
2021/09/05 09:02:03;;;;;;;14.35;12.05;;;23.10;99.90;;;;;;5088622;28;20460;-55
2021/09/05 09:04:43;;;;;;;13.02;11.57;;;22.80;98.20;;;;;;5088697;28;20085;-57
2021/09/05 09:07:14;;;;;;;19.58;17.83;;;22.70;96.90;;;;;;5085173;28;20105;-57
2021/09/05 09:10:01;;;;;;;14.88;12.18;;;22.80;96.70;;;;;;5087441;28;20094;-56
2021/09/05 09:12:49;;;;;;;11.93;10.65;;;23.20;95.90;;;;;;5089329;28;20083;-57
2021/09/05 09:15:33;;;;;;;15.90;14.13;;;23.20;95.50;;;;;;5088452;28;20504;-57
2021/09/05 09:18:04;;;;;;;11.93;10.73;;;23.20;95.80;;;;;;5086700;28;20772;-58
2021/09/05 09:20:41;;;;;;;12.20;10.77;;;23.60;93.60;;;;;;5086022;28;20067;-57
2021/09/05 09:23:14;;;;;;;13.27;11.98;;;23.80;93.60;;;;;;5084627;28;20450;-57
2021/09/05 09:26:01;;;;;;;11.20;10.05;;;23.40;94.40;;;;;;5088671;28;20055;-55
2021/09/05 09:28:39;;;;;;;11.65;10.45;;;23.60;91.20;;;;;;5088729;28;20073;-57
2021/09/05 09:31:22;;;;;;;12.48;10.90;;;23.40;87.50;;;;;;5088787;28;20052;-57
2021/09/05 09:33:56;;;;;;;11.88;10.68;;;23.30;89.70;;;;;;5088111;28;20044;-57
2021/09/05 09:36:32;;;;;;;13.27;11.98;;;23.50;90.40;;;;;;5087994;28;20094;-57
2021/09/05 09:39:06;;;;;;;12.55;11.20;;;23.80;91.50;;;;;;5086416;28;20119;-58
2021/09/05 09:41:33;;;;;;;11.65;10.50;;;24.00;90.50;;;;;;5085082;28;20052;-57
2021/09/05 09:44:08;;;;;;;11.70;10.10;;;24.20;91.00;;;;;;5087578;28;20497;-56
2021/09/05 09:46:42;;;;;;;11.13;9.85;;;23.80;86.80;;;;;;5086965;28;20512;-55
2021/09/05 09:49:13;;;;;;;11.35;10.15;;;24.30;86.10;;;;;;5078221;28;20566;-58
2021/09/05 09:51:44;;;;;;;23.10;20.80;;;24.30;81.10;;;;;;5087696;28;20388;-55
2021/09/05 09:54:21;;;;;;;27.98;25.00;;;24.30;84.20;;;;;;5082434;28;20170;-55
2021/09/05 09:56:56;;;;;;;11.38;10.07;;;24.70;83.40;;;;;;5079916;28;20113;-57
2021/09/05 09:59:28;;;;;;;10.95;9.82;;;24.60;78.70;;;;;;5084603;28;20131;-58
2021/09/05 10:01:57;;;;;;;14.07;12.70;;;25.20;78.00;;;;;;5093590;28;20131;-50
2021/09/05 10:04:29;;;;;;;17.55;15.55;;;25.50;78.30;;;;;;5085282;28;20052;-55
2021/09/05 10:06:58;;;;;;;49.33;44.58;;;25.30;73.30;;;;;;5087142;28;20059;-56
2021/09/05 10:09:29;;;;;;;17.65;15.90;;;25.50;74.20;;;;;;5087304;28;20093;-56
2021/09/05 10:11:56;;;;;;;14.48;12.25;;;26.20;71.60;;;;;;5090211;28;20093;-56
2021/09/05 10:14:29;;;;;;;14.63;13.23;;;26.00;70.50;;;;;;5087116;28;20117;-56
2021/09/05 10:16:58;;;;;;;26.83;24.20;;;26.40;69.80;;;;;;5080735;28;20052;-56
2021/09/05 10:19:24;;;;;;;17.55;15.88;;;26.40;69.30;;;;;;5087030;28;20796;-56
2021/09/05 10:21:54;;;;;;;10.80;8.70;;;26.40;67.70;;;;;;5086888;28;20591;-56
2021/09/05 10:24:23;;;;;;;23.60;21.40;;;26.90;66.80;;;;;;5086433;28;20060;-56
2021/09/05 10:27:03;;;;;;;12.80;10.30;;;26.90;66.10;;;;;;5087215;28;20048;-56
2021/09/05 10:29:36;;;;;;;12.23;10.93;;;27.20;63.40;;;;;;5075528;28;20052;-56
2021/09/05 10:32:03;;;;;;;14.85;13.48;;;26.50;64.10;;;;;;5087355;28;20267;-56
2021/09/05 10:34:34;;;;;;;10.98;9.18;;;26.70;65.10;;;;;;5087747;28;20516;-56
2021/09/05 10:37:11;;;;;;;14.05;12.48;;;27.10;62.60;;;;;;5087668;28;20052;-56
2021/09/05 10:40:06;;;;;;;14.35;11.52;;;27.00;62.70;;;;;;5086983;28;20055;-55
2021/09/05 10:42:53;;;;;;;11.68;10.23;;;26.50;62.50;;;;;;5086233;28;20051;-56
2021/09/05 10:45:22;;;;;;;31.75;28.77;;;27.30;64.80;;;;;;5084731;28;20071;-55
2021/09/05 10:47:48;;;;;;;22.95;19.80;;;26.80;64.40;;;;;;5083008;28;20052;-56
2021/09/05 10:50:38;;;;;;;10.20;9.05;;;27.60;62.80;;;;;;5085308;28;20060;-56
2021/09/05 10:53:23;;;;;;;17.98;15.00;;;27.70;62.60;;;;;;5085669;28;20110;-56
2021/09/05 10:56:05;;;;;;;12.95;10.05;;;27.60;61.00;;;;;;5080215;28;20060;-56
2021/09/05 10:58:46;;;;;;;16.77;15.07;;;27.40;60.50;;;;;;5085117;28;20123;-56
2021/09/05 11:01:30;;;;;;;12.25;9.35;;;27.50;59.50;;;;;;5077582;28;20052;-56
2021/09/05 11:04:12;;;;;;;21.13;19.23;;;27.00;61.30;;;;;;5085982;28;20056;-56
2021/09/05 11:06:46;;;;;;;11.63;10.43;;;27.20;59.30;;;;;;5086016;28;20048;-55
2021/09/05 11:12:33;;;;;;;11.80;10.55;;;26.90;60.30;;;;;;5088028;28;20060;-56
2021/09/05 11:15:01;;;;;;;13.90;11.55;;;26.90;59.90;;;;;;5046533;28;20056;-56
2021/09/05 11:17:32;;;;;;;14.68;13.18;;;27.20;62.00;;;;;;5047112;28;20057;-55
2021/09/05 11:20:00;;;;;;;;;;;27.40;60.30;;;;;;5050010;28;20056;-56
2021/09/05 11:22:39;;;;;;;11.70;10.23;;;27.10;59.60;;;;;;5062283;28;19928;-56
2021/09/05 11:25:24;;;;;;;11.40;10.18;;;27.50;60.80;;;;;;5083227;28;20872;-55
2021/09/05 11:28:01;;;;;;;11.25;9.90;;;27.10;59.80;;;;;;5066507;28;20052;-56
2021/09/05 11:30:34;;;;;;;12.93;10.40;;;27.80;58.80;;;;;;5066379;28;20052;-54
2021/09/05 11:33:12;;;;;;;13.90;11.52;;;27.90;57.20;;;;;;5066253;28;20040;-56
2021/09/05 11:35:43;;;;;;;;;;;28.30;58.20;;;;;;5066242;28;20174;-56
2021/09/05 11:38:14;;;;;;;12.00;10.27;;;27.60;58.40;;;;;;5066202;28;19958;-57
2021/09/05 11:40:54;;;;;;;12.13;9.90;;;28.10;59.30;;;;;;5065260;28;20135;-57
2021/09/05 11:43:36;;;;;;;10.48;9.48;;;28.40;57.60;;;;;;5066699;28;20048;-56
2021/09/05 11:46:14;;;;;;;12.93;11.48;;;28.60;58.50;;;;;;5068552;28;20122;-55
2021/09/05 11:49:01;;;;;;;13.70;10.57;;;28.70;54.90;;;;;;5088008;28;20099;-56
2021/09/05 11:51:34;;;;;;;13.90;11.90;;;28.90;53.90;;;;;;5119349;27;20048;-54
2021/09/05 11:54:07;;;;;;;;;;;28.40;56.20;;;;;;5088132;28;20058;-57
2021/09/05 11:56:41;;;;;;;13.65;11.20;;;28.10;57.60;;;;;;5086694;28;19924;-56
2021/09/05 11:59:13;;;;;;;14.20;12.70;;;27.90;58.60;;;;;;5089009;28;20052;-56
2021/09/05 12:01:50;;;;;;;13.35;11.32;;;28.40;56.80;;;;;;5068113;28;20139;-52
2021/09/05 12:04:21;;;;;;;14.10;11.98;;;28.40;56.90;;;;;;5082925;28;20055;-58
2021/09/05 12:06:49;;;;;;;12.73;11.20;;;28.10;56.90;;;;;;5088504;28;20060;-59
2021/09/05 12:09:29;;;;;;;13.35;11.40;;;28.10;56.50;;;;;;5091885;28;20080;-58
2021/09/05 12:12:03;;;;;;;23.88;21.42;;;27.70;57.40;;;;;;5078417;28;20040;-58
2021/09/05 12:14:38;;;;;;;62.53;56.92;;;28.30;56.60;;;;;;5080983;28;20500;-58
2021/09/05 12:17:20;;;;;;;34.30;30.83;;;28.10;56.90;;;;;;5068400;28;20057;-58
2021/09/05 12:20:01;;;;;;;33.63;30.38;;;28.40;56.20;;;;;;5082120;28;20059;-58
2021/09/05 12:22:47;;;;;;;15.43;13.82;;;28.50;56.80;;;;;;5085293;28;20056;-58
2021/09/05 12:25:33;;;;;;;12.75;11.13;;;28.60;56.00;;;;;;5085891;28;20142;-59
2021/09/05 12:28:10;;;;;;;14.70;13.18;;;28.60;55.00;;;;;;5088766;28;20056;-59
2021/09/05 12:30:42;;;;;;;15.90;14.00;;;28.60;56.30;;;;;;5088890;28;20099;-59
2021/09/05 12:33:17;;;;;;;13.98;11.20;;;28.50;54.90;;;;;;5087237;28;20052;-50
2021/09/05 12:35:57;;;;;;;12.40;11.23;;;28.90;54.20;;;;;;5077085;28;20066;-51
2021/09/05 12:38:30;;;;;;;14.48;11.40;;;28.50;55.00;;;;;;5082687;28;20101;-49
2021/09/05 12:41:16;;;;;;;14.32;12.20;;;28.60;54.40;;;;;;5085536;28;20416;-50
2021/09/05 12:43:59;;;;;;;13.23;10.65;;;28.60;53.90;;;;;;5083584;28;20044;-48
2021/09/05 12:46:42;;;;;;;11.68;10.15;;;28.70;54.20;;;;;;5080279;28;20071;-48
2021/09/05 12:49:13;;;;;;;156.02;142.02;;;28.50;53.80;;;;;;5085257;28;20405;-54
2021/09/05 12:51:58;;;;;;;21.77;19.58;;;28.30;54.50;;;;;;5085997;28;20051;-57
2021/09/05 12:54:26;;;;;;;14.77;12.43;;;28.60;53.80;;;;;;5081618;28;20500;-58
2021/09/05 12:57:01;;;;;;;;;;;28.60;53.20;;;;;;5078933;28;20061;-57
2021/09/05 12:59:35;;;;;;;11.63;10.45;;;28.80;52.70;;;;;;5080562;28;20023;-55
2021/09/05 13:02:15;;;;;;;20.17;18.23;;;28.90;53.40;;;;;;5082365;28;20068;-55
2021/09/05 13:04:53;;;;;;;11.98;9.77;;;28.90;53.10;;;;;;5085329;28;20063;-55
2021/09/05 13:07:21;;;;;;;11.82;10.38;;;28.70;53.40;;;;;;5085423;28;20056;-55
2021/09/05 13:09:55;;;;;;;12.20;9.80;;;28.90;52.40;;;;;;5086655;28;20059;-56
2021/09/05 13:12:24;;;;;;;14.75;13.23;;;29.20;52.30;;;;;;5081371;28;20052;-55
2021/09/05 13:14:57;;;;;;;24.52;21.98;;;29.30;51.10;;;;;;5075289;28;20465;-55
2021/09/05 13:17:24;;;;;;;15.95;14.38;;;29.40;50.90;;;;;;5087349;28;20577;-56
2021/09/05 13:20:00;;;;;;;12.07;10.80;;;29.10;51.80;;;;;;5072627;28;20114;-56
2021/09/05 13:22:27;;;;;;;15.15;11.00;;;29.40;51.40;;;;;;5083500;28;20419;-56